Time,TemperatureF,DewpointF,PressureIn,WindDirection,WindDirectionDegrees,WindSpeedMPH,WindSpeedGustMPH,Humidity,HourlyPrecipIn,Conditions,Clouds,dailyrainin,SolarRadiationWatts/m^2,SoftwareType,DateUTC
2013-07-22 00:08:00,72.1,71.0,30.14,WSW,238,0.0,1.0,97,0.00,,,0.00,0,weatherlink.com 1.10,2013-07-22 04:08:00,
2013-07-22 00:24:00,72.2,71.0,30.14,WSW,238,0.0,0.0,97,0.00,,,0.00,0,weatherlink.com 1.10,2013-07-22 04:24:00,
2013-07-22 00:39:00,72.2,71.0,30.13,WSW,238,0.0,1.0,97,0.00,,,0.00,0,weatherlink.com 1.10,2013-07-22 04:39:00,
2013-07-22 00:54:00,72.2,71.0,30.13,WSW,238,0.0,0.0,97,0.00,,,0.00,0,weatherlink.com 1.10,2013-07-22 04:54:00,
2013-07-22 01:09:00,72.2,71.0,30.13,WSW,238,0.0,1.0,97,0.00,,,0.00,0,weatherlink.com 1.10,2013-07-22 05:09:00,
2013-07-22 01:39:00,72.4,72.0,30.13,WSW,238,0.0,2.0,98,0.00,,,0.00,0,weatherlink.com 1.10,2013-07-22 05:39:00,
2013-07-22 01:54:00,72.4,72.0,30.12,WSW,238,0.0,1.0,98,0.00,,,0.00,0,weatherlink.com 1.10,2013-07-22 05:54:00,
2013-07-22 02:10:00,72.5,72.0,30.12,WSW,238,0.0,0.0,98,0.00,,,0.00,0,weatherlink.com 1.10,2013-07-22 06:10:00,
2013-07-22 02:26:00,72.6,72.0,30.12,WSW,238,0.0,0.0,98,0.00,,,0.00,0,weatherlink.com 1.10,2013-07-22 06:26:00,
2013-07-22 02:56:00,72.5,72.0,30.11,WSW,238,0.0,1.0,98,0.00,,,0.00,0,weatherlink.com 1.10,2013-07-22 06:56:00,
2013-07-22 03:26:00,72.4,72.0,30.11,WSW,238,0.0,2.0,98,0.01,,,0.01,0,weatherlink.com 1.10,2013-07-22 07:26:00,
2013-07-22 03:42:00,72.3,72.0,30.10,WSW,238,0.0,2.0,98,0.01,,,0.01,0,weatherlink.com 1.10,2013-07-22 07:42:00,
2013-07-22 03:56:00,72.3,71.0,30.11,WSW,238,0.0,1.0,97,0.01,,,0.01,0,weatherlink.com 1.10,2013-07-22 07:56:00,
2013-07-22 04:12:00,72.2,71.0,30.11,WSW,238,0.0,0.0,97,0.01,,,0.01,0,weatherlink.com 1.10,2013-07-22 08:12:00,
2013-07-22 04:28:00,72.1,72.0,30.11,WSW,238,0.0,0.0,98,0.00,,,0.01,0,weatherlink.com 1.10,2013-07-22 08:28:00,
2013-07-22 05:13:00,72.5,72.0,30.11,WSW,238,0.0,0.0,98,0.00,,,0.01,0,weatherlink.com 1.10,2013-07-22 09:13:00,
2013-07-22 05:28:00,72.6,72.0,30.11,WSW,238,0.0,0.0,98,0.00,,,0.01,0,weatherlink.com 1.10,2013-07-22 09:28:00,
2013-07-22 05:43:00,72.7,72.0,30.11,WSW,238,0.0,2.0,98,0.00,,,0.01,0,weatherlink.com 1.10,2013-07-22 09:43:00,
2013-07-22 05:59:00,72.7,72.0,30.12,WSW,238,1.0,1.0,98,0.00,,,0.01,0,weatherlink.com 1.10,2013-07-22 09:59:00,
2013-07-22 06:14:00,72.7,72.0,30.12,WSW,238,0.0,2.0,98,0.00,,,0.01,0,weatherlink.com 1.10,2013-07-22 10:14:00,
2013-07-22 06:30:00,72.8,72.0,30.12,WSW,240,0.0,2.0,98,0.00,,,0.01,0,weatherlink.com 1.10,2013-07-22 10:30:00,
2013-07-22 06:44:00,72.9,72.0,30.12,WSW,240,0.0,1.0,98,0.00,,,0.01,0,weatherlink.com 1.10,2013-07-22 10:44:00,
2013-07-22 06:59:00,73.0,72.0,30.12,WSW,240,0.0,1.0,98,0.00,,,0.01,11,weatherlink.com 1.10,2013-07-22 10:59:00,
2013-07-22 07:30:00,74.1,74.0,30.14,WSW,246,0.0,3.0,98,0.00,,,0.01,49,weatherlink.com 1.10,2013-07-22 11:30:00,
2013-07-22 07:45:00,74.5,74.0,30.14,WSW,246,0.0,2.0,98,0.00,,,0.01,76,weatherlink.com 1.10,2013-07-22 11:45:00,
2013-07-22 08:00:00,75.4,75.0,30.14,WSW,241,0.0,2.0,98,0.00,,,0.01,97,weatherlink.com 1.10,2013-07-22 12:00:00,
2013-07-22 08:16:00,76.6,76.0,30.14,SSW,213,2.0,4.0,98,0.00,,,0.01,262,weatherlink.com 1.10,2013-07-22 12:16:00,
2013-07-22 08:31:00,78.0,77.0,30.15,SW,232,2.0,6.0,96,0.00,,,0.01,313,weatherlink.com 1.10,2013-07-22 12:31:00,
2013-07-22 09:01:00,80.6,78.0,30.16,WSW,243,0.0,6.0,90,0.00,,,0.01,192,weatherlink.com 1.10,2013-07-22 13:01:00,
2013-07-22 09:17:00,80.2,77.0,30.16,South,189,1.0,5.0,90,0.00,,,0.01,229,weatherlink.com 1.10,2013-07-22 13:17:00,
2013-07-22 09:32:00,81.4,78.0,30.16,South,178,3.0,4.0,90,0.00,,,0.01,564,weatherlink.com 1.10,2013-07-22 13:32:00,
2013-07-22 09:47:00,82.3,79.0,30.16,WSW,248,3.0,7.0,88,0.00,,,0.01,251,weatherlink.com 1.10,2013-07-22 13:47:00,
2013-07-22 10:02:00,82.9,78.0,30.16,South,178,1.0,7.0,86,0.00,,,0.01,592,weatherlink.com 1.10,2013-07-22 14:02:00,
2013-07-22 10:18:00,84.1,79.0,30.16,SW,223,1.0,8.0,83,0.00,,,0.01,696,weatherlink.com 1.10,2013-07-22 14:18:00,
2013-07-22 10:32:00,85.6,80.0,30.16,SW,232,4.0,8.0,84,0.00,,,0.01,712,weatherlink.com 1.10,2013-07-22 14:32:00,
2013-07-22 10:48:00,86.5,80.0,30.16,South,184,4.0,6.0,80,0.00,,,0.01,773,weatherlink.com 1.10,2013-07-22 14:48:00,
2013-07-22 11:03:00,87.2,80.0,30.16,SW,225,2.0,7.0,79,0.00,,,0.01,854,weatherlink.com 1.10,2013-07-22 15:03:00,
2013-07-22 11:18:00,88.2,81.0,30.15,West,260,2.0,8.0,78,0.00,,,0.01,874,weatherlink.com 1.10,2013-07-22 15:18:00,
2013-07-22 11:33:00,88.9,80.0,30.15,West,260,0.0,7.0,76,0.00,,,0.01,918,weatherlink.com 1.10,2013-07-22 15:33:00,
2013-07-22 11:49:00,89.0,82.0,30.15,SW,225,2.0,7.0,80,0.00,,,0.01,1021,weatherlink.com 1.10,2013-07-22 15:49:00,
2013-07-22 12:05:00,89.7,82.0,30.15,WSW,238,3.0,9.0,77,0.00,,,0.01,1095,weatherlink.com 1.10,2013-07-22 16:05:00,
2013-07-22 12:20:00,89.0,81.0,30.15,SW,217,6.0,8.0,76,0.00,,,0.01,304,weatherlink.com 1.10,2013-07-22 16:20:00,
2013-07-22 12:35:00,88.8,80.0,30.15,SW,217,1.0,7.0,74,0.00,,,0.01,1062,weatherlink.com 1.10,2013-07-22 16:35:00,
2013-07-22 12:50:00,89.8,79.0,30.14,West,274,3.0,8.0,71,0.00,,,0.01,1093,weatherlink.com 1.10,2013-07-22 16:50:00,
2013-07-22 13:05:00,90.7,80.0,30.14,SW,232,4.0,11.0,71,0.00,,,0.01,1023,weatherlink.com 1.10,2013-07-22 17:05:00,
2013-07-22 13:21:00,90.1,79.0,30.13,West,277,2.0,7.0,69,0.00,,,0.01,1074,weatherlink.com 1.10,2013-07-22 17:21:00,
2013-07-22 13:35:00,90.4,80.0,30.12,SW,225,4.0,7.0,72,0.00,,,0.01,1086,weatherlink.com 1.10,2013-07-22 17:35:00,
2013-07-22 13:51:00,90.6,79.0,30.12,SSW,210,1.0,8.0,69,0.00,,,0.01,290,weatherlink.com 1.10,2013-07-22 17:51:00,
2013-07-22 14:05:00,89.9,78.0,30.12,SW,228,1.0,7.0,68,0.00,,,0.01,1125,weatherlink.com 1.10,2013-07-22 18:05:00,
2013-07-22 14:22:00,90.3,81.0,30.12,South,184,2.0,8.0,74,0.00,,,0.01,1027,weatherlink.com 1.10,2013-07-22 18:22:00,
2013-07-22 14:37:00,91.4,78.0,30.11,WSW,253,2.0,9.0,65,0.00,,,0.01,1088,weatherlink.com 1.10,2013-07-22 18:37:00,
2013-07-22 15:07:00,91.0,79.0,30.10,SW,226,3.0,7.0,67,0.00,,,0.01,969,weatherlink.com 1.10,2013-07-22 19:07:00,
2013-07-22 15:22:00,90.4,78.0,30.10,SSW,213,0.0,10.0,67,0.00,,,0.01,253,weatherlink.com 1.10,2013-07-22 19:22:00,
2013-07-22 15:37:00,90.8,78.0,30.10,SSW,211,6.0,8.0,67,0.00,,,0.01,904,weatherlink.com 1.10,2013-07-22 19:37:00,
2013-07-22 15:53:00,91.8,77.0,30.10,SW,236,5.0,10.0,62,0.00,,,0.01,840,weatherlink.com 1.10,2013-07-22 19:53:00,
2013-07-22 16:07:00,91.8,77.0,30.09,WSW,256,4.0,8.0,62,0.00,,,0.01,838,weatherlink.com 1.10,2013-07-22 20:07:00,
2013-07-22 16:39:00,90.4,77.0,30.08,SW,234,1.0,7.0,64,0.00,,,0.01,67,weatherlink.com 1.10,2013-07-22 20:39:00,
2013-07-22 16:55:00,88.7,77.0,30.09,SW,234,0.0,6.0,68,0.00,,,0.01,142,weatherlink.com 1.10,2013-07-22 20:55:00,
2013-07-22 17:08:00,88.8,76.0,30.09,SW,223,1.0,5.0,67,0.00,,,0.01,149,weatherlink.com 1.10,2013-07-22 21:08:00,
2013-07-22 17:24:00,89.2,77.0,30.09,WSW,242,5.0,6.0,67,0.00,,,0.01,139,weatherlink.com 1.10,2013-07-22 21:24:00,
2013-07-22 17:56:00,88.7,79.0,30.09,WSW,245,2.0,3.0,72,0.00,,,0.01,128,weatherlink.com 1.10,2013-07-22 21:56:00,
2013-07-22 18:09:00,88.0,76.0,30.08,SW,224,3.0,8.0,67,0.00,,,0.01,111,weatherlink.com 1.10,2013-07-22 22:09:00,
2013-07-22 18:25:00,84.9,75.0,30.12,NNE,21,14.0,23.0,71,0.00,,,0.01,9,weatherlink.com 1.10,2013-07-22 22:25:00,
2013-07-22 18:42:00,78.2,74.0,30.12,East,91,3.0,15.0,86,0.04,,,0.05,19,weatherlink.com 1.10,2013-07-22 22:42:00,
2013-07-22 18:57:00,76.2,74.0,30.13,SW,219,0.0,5.0,92,0.06,,,0.07,23,weatherlink.com 1.10,2013-07-22 22:57:00,
2013-07-22 19:16:00,75.5,73.0,30.13,NNW,346,0.0,3.0,93,0.06,,,0.07,16,weatherlink.com 1.10,2013-07-22 23:16:00,
2013-07-22 19:28:00,75.2,73.0,30.12,North,5,0.0,4.0,94,0.06,,,0.07,11,weatherlink.com 1.10,2013-07-22 23:28:00,
2013-07-22 19:43:00,74.9,73.0,30.12,West,277,0.0,4.0,94,0.00,,,0.07,7,weatherlink.com 1.10,2013-07-22 23:43:00,
2013-07-22 19:56:00,74.6,73.0,30.12,NW,322,0.0,1.0,95,0.00,,,0.07,0,weatherlink.com 1.10,2013-07-22 23:56:00,
2013-07-22 20:12:00,74.5,73.0,30.11,NW,322,0.0,0.0,95,0.00,,,0.07,0,weatherlink.com 1.10,2013-07-23 00:12:00,
2013-07-22 20:27:00,74.5,73.0,30.10,NW,322,0.0,0.0,95,0.00,,,0.07,0,weatherlink.com 1.10,2013-07-23 00:27:00,
2013-07-22 20:42:00,74.6,73.0,30.10,NW,322,0.0,1.0,96,0.00,,,0.07,0,weatherlink.com 1.10,2013-07-23 00:42:00,
2013-07-22 20:58:00,74.7,74.0,30.10,NW,322,0.0,0.0,96,0.00,,,0.07,0,weatherlink.com 1.10,2013-07-23 00:58:00,
2013-07-22 21:13:00,74.8,74.0,30.11,NW,322,0.0,1.0,96,0.00,,,0.07,0,weatherlink.com 1.10,2013-07-23 01:13:00,
2013-07-22 21:28:00,74.7,74.0,30.11,NW,322,0.0,0.0,96,0.00,,,0.07,0,weatherlink.com 1.10,2013-07-23 01:28:00,
2013-07-22 21:44:00,74.6,73.0,30.11,NW,322,0.0,0.0,96,0.00,,,0.07,0,weatherlink.com 1.10,2013-07-23 01:44:00,
2013-07-22 21:59:00,74.4,73.0,30.11,NW,322,0.0,1.0,96,0.00,,,0.07,0,weatherlink.com 1.10,2013-07-23 01:59:00,
2013-07-22 22:15:00,74.3,73.0,30.12,NW,322,0.0,0.0,96,0.00,,,0.07,0,weatherlink.com 1.10,2013-07-23 02:15:00,
2013-07-22 22:28:00,74.2,73.0,30.12,NW,322,0.0,0.0,96,0.00,,,0.07,0,weatherlink.com 1.10,2013-07-23 02:28:00,
2013-07-22 22:43:00,74.2,73.0,30.12,NW,322,0.0,0.0,96,0.00,,,0.07,0,weatherlink.com 1.10,2013-07-23 02:43:00,
2013-07-22 23:14:00,73.9,73.0,30.12,NW,322,0.0,0.0,96,0.00,,,0.07,0,weatherlink.com 1.10,2013-07-23 03:14:00,
2013-07-22 23:30:00,73.8,73.0,30.13,NW,322,0.0,0.0,97,0.00,,,0.07,0,weatherlink.com 1.10,2013-07-23 03:30:00,
2013-07-22 23:45:00,73.7,73.0,30.12,NW,322,0.0,0.0,97,0.00,,,0.07,0,weatherlink.com 1.10,2013-07-23 03:45:00,